createdAt,value
2023-04-08T00:00:47.355Z,86.6879
2023-04-08T00:01:48.349Z,86.6894
2023-04-08T00:02:49.141Z,86.6833
2023-04-08T00:03:50.075Z,86.6316
2023-04-08T00:04:50.901Z,86.5053
2023-04-08T00:05:51.867Z,86.4074
2023-04-08T00:06:52.423Z,86.2916
2023-04-08T00:07:52.992Z,86.3281
2023-04-08T00:08:53.353Z,86.2962
2023-04-08T00:09:54.054Z,86.1958
2023-04-08T00:10:54.505Z,86.1720
2023-04-08T00:11:55.037Z,86.1460
2023-04-08T00:12:55.440Z,86.0724
2023-04-08T00:13:55.959Z,86.0913
2023-04-08T00:14:56.315Z,86.1200
2023-04-08T00:15:56.882Z,86.0305
2023-04-08T00:16:57.796Z,86.0907
2023-04-08T00:17:58.271Z,86.1324
2023-04-08T00:18:58.907Z,86.1641
2023-04-08T00:19:59.636Z,86.1349
2023-04-08T00:21:00.189Z,86.1591
2023-04-08T00:22:00.615Z,86.2596
2023-04-08T00:23:01.204Z,86.2301
2023-04-08T00:24:01.764Z,86.0600
2023-04-08T00:25:02.145Z,86.0431
2023-04-08T00:26:02.690Z,86.0234
2023-04-08T00:27:03.074Z,85.9137
2023-04-08T00:28:03.631Z,85.8869
2023-04-08T00:29:04.066Z,85.8713
2023-04-08T00:30:04.633Z,85.9135
2023-04-08T00:31:05.441Z,85.8178
2023-04-08T00:32:06.186Z,85.8287
2023-04-08T00:33:07.066Z,85.8240
2023-04-08T00:34:07.430Z,85.7267
2023-04-08T00:35:08.029Z,85.7387
2023-04-08T00:36:08.801Z,85.8166
2023-04-08T00:37:09.231Z,85.8785
2023-04-08T00:38:09.759Z,85.9724
2023-04-08T00:39:10.132Z,86.1083
2023-04-08T00:40:10.712Z,86.1353
2023-04-08T00:41:11.211Z,86.2525
2023-04-08T00:42:11.637Z,86.4289
2023-04-08T00:43:12.145Z,86.5381
2023-04-08T00:44:12.586Z,86.6411
2023-04-08T00:45:13.069Z,86.6518
2023-04-08T00:46:13.757Z,86.7310
2023-04-08T00:47:14.621Z,86.7533
2023-04-08T00:48:15.318Z,86.7876
2023-04-08T00:49:16.097Z,86.6324
2023-04-08T00:50:16.492Z,86.5762
2023-04-08T00:51:17.037Z,86.5551
2023-04-08T00:52:17.596Z,86.5599
2023-04-08T00:53:17.971Z,86.4695
2023-04-08T00:54:18.555Z,86.4332
2023-04-08T00:55:18.982Z,86.3534
2023-04-08T00:56:19.444Z,86.2926
2023-04-08T00:57:19.943Z,86.2725
2023-04-08T00:58:20.557Z,86.2246
2023-04-08T00:59:21.680Z,86.2175
2023-04-08T01:00:22.132Z,86.3188
2023-04-08T01:01:22.923Z,86.2372
2023-04-08T01:02:24.142Z,86.2435
2023-04-08T01:03:25.119Z,86.4127
2023-04-08T01:04:25.115Z,86.5143
2023-04-08T01:05:25.971Z,86.5733
2023-04-08T01:06:26.408Z,86.6308
2023-04-08T01:07:27.075Z,86.7001
2023-04-08T01:08:27.756Z,86.7001
2023-04-08T01:09:28.261Z,86.6847
2023-04-08T01:10:29.001Z,86.6787
2023-04-08T01:11:29.534Z,86.6676
2023-04-08T01:12:30.243Z,86.6720
2023-04-08T01:13:30.721Z,86.6655
2023-04-08T01:14:31.272Z,86.6991
2023-04-08T01:15:32.015Z,86.7416
2023-04-08T01:16:32.621Z,86.7784
2023-04-08T01:17:33.368Z,86.7322
2023-04-08T01:18:34.111Z,86.6653
2023-04-08T01:19:34.754Z,86.6884
2023-04-08T01:20:35.440Z,86.6409
2023-04-08T01:21:35.868Z,86.5838
2023-04-08T01:22:36.481Z,86.5894
2023-04-08T01:23:36.943Z,86.6134
2023-04-08T01:24:37.609Z,86.6223
2023-04-08T01:25:38.166Z,86.6021
2023-04-08T01:26:38.832Z,86.7148
2023-04-08T01:27:39.496Z,86.8133
2023-04-08T01:28:39.981Z,86.7782
2023-04-08T01:29:40.639Z,86.6544
2023-04-08T01:30:40.962Z,86.5333
2023-04-08T01:31:41.928Z,86.5790
2023-04-08T01:32:42.019Z,86.6544
2023-04-08T01:33:42.651Z,86.7034
2023-04-08T01:34:43.320Z,86.7236
2023-04-08T01:35:43.912Z,86.7327
2023-04-08T01:36:44.848Z,86.6975
2023-04-08T01:37:45.469Z,86.6350
2023-04-08T01:38:46.024Z,86.6808
2023-04-08T01:39:47.279Z,86.6418
2023-04-08T01:40:47.977Z,86.6454
2023-04-08T01:41:48.536Z,86.6335
2023-04-08T01:42:49.222Z,86.7369
2023-04-08T01:43:49.695Z,86.7560
2023-04-08T01:44:50.275Z,86.6455
2023-04-08T01:45:50.782Z,86.5920
2023-04-08T01:46:51.573Z,86.5187
2023-04-08T01:47:52.746Z,86.4824
2023-04-08T01:48:53.261Z,86.4357
2023-04-08T01:49:53.848Z,86.3865
2023-04-08T01:50:54.308Z,86.3491
2023-04-08T01:51:54.971Z,86.2115
2023-04-08T01:52:55.402Z,86.4009
2023-04-08T01:53:56.087Z,86.4595
2023-04-08T01:54:56.674Z,86.5147
2023-04-08T01:55:57.242Z,86.5154
2023-04-08T01:56:57.824Z,86.4415
2023-04-08T01:57:58.316Z,86.3611
2023-04-08T01:58:59.505Z,86.3431
2023-04-08T02:00:00.157Z,86.3727
2023-04-08T02:01:00.587Z,86.5052
2023-04-08T02:02:01.687Z,86.6248
2023-04-08T02:03:03.286Z,86.5992
2023-04-08T02:04:04.290Z,86.6206
2023-04-08T02:05:05.200Z,86.6444
2023-04-08T02:06:05.937Z,86.6184
2023-04-08T02:07:06.515Z,86.6541
2023-04-08T02:08:07.161Z,86.7574
2023-04-08T02:09:07.866Z,86.8002
2023-04-08T02:10:08.531Z,86.7582
2023-04-08T02:11:09.025Z,86.7618
2023-04-08T02:12:09.681Z,86.7299
2023-04-08T02:13:10.410Z,86.6916
2023-04-08T02:14:10.920Z,86.7180
2023-04-08T02:15:11.582Z,86.6086
2023-04-08T02:16:12.193Z,86.5370
2023-04-08T02:17:13.060Z,86.4079
2023-04-08T02:18:13.933Z,86.3892
2023-04-08T02:19:14.478Z,86.3232
2023-04-08T02:20:15.155Z,86.3181
2023-04-08T02:21:15.700Z,86.3512
2023-04-08T02:22:16.265Z,86.3873
2023-04-08T02:23:17.011Z,86.4261
2023-04-08T02:24:17.472Z,86.3852
2023-04-08T02:25:18.065Z,86.3613
2023-04-08T02:26:18.670Z,86.5726
2023-04-08T02:27:19.349Z,86.5518
2023-04-08T02:28:20.083Z,86.5178
2023-04-08T02:29:20.081Z,86.5110
2023-04-08T02:30:20.733Z,86.5905
2023-04-08T02:31:21.284Z,86.9104
2023-04-08T02:32:22.259Z,86.9744
2023-04-08T02:33:23.106Z,87.0560
2023-04-08T02:34:23.849Z,87.0652
2023-04-08T02:35:24.650Z,87.1536
2023-04-08T02:36:25.483Z,87.1766
2023-04-08T02:37:26.081Z,87.3036
2023-04-08T02:38:26.623Z,87.3235
2023-04-08T02:39:26.670Z,87.2447
2023-04-08T02:40:27.229Z,87.1941
2023-04-08T02:41:27.773Z,87.1517
2023-04-08T02:42:28.231Z,87.1805
2023-04-08T02:43:28.948Z,86.9514
2023-04-08T02:44:29.283Z,86.7990
2023-04-08T02:45:29.800Z,86.7963
2023-04-08T02:46:30.695Z,86.7415
2023-04-08T02:47:31.390Z,86.7695
2023-04-08T02:48:32.268Z,86.9221
2023-04-08T02:49:33.522Z,86.9371
2023-04-08T02:50:33.954Z,86.7610
2023-04-08T02:51:34.619Z,86.7415
2023-04-08T02:52:35.066Z,86.4991
2023-04-08T02:53:35.855Z,86.1324
2023-04-08T02:54:36.313Z,85.8235
2023-04-08T02:55:37.041Z,85.7578
2023-04-08T02:56:37.621Z,85.8169
2023-04-08T02:57:38.217Z,85.8872
2023-04-08T02:58:38.734Z,85.8980
2023-04-08T02:59:39.897Z,85.8036
2023-04-08T03:00:40.415Z,85.9652
2023-04-08T03:01:41.409Z,85.9791
2023-04-08T03:02:42.010Z,85.9182
2023-04-08T03:03:42.966Z,85.8848
2023-04-08T03:04:43.729Z,85.9636
2023-04-08T03:05:44.584Z,86.0461
2023-04-08T03:06:45.148Z,86.0113
2023-04-08T03:07:45.818Z,85.9163
2023-04-08T03:08:46.338Z,86.0607
2023-04-08T03:09:46.979Z,86.3789
2023-04-08T03:10:47.557Z,86.6520
2023-04-08T03:11:48.185Z,87.2353
2023-04-08T03:12:48.699Z,87.7850
2023-04-08T03:13:49.339Z,87.8971
2023-04-08T03:14:49.842Z,88.0808
2023-04-08T03:15:50.567Z,88.3068
2023-04-08T03:16:51.366Z,88.5199
2023-04-08T03:17:52.315Z,89.1268
2023-04-08T03:18:53.039Z,89.6238
2023-04-08T03:19:53.901Z,89.8746
2023-04-08T03:20:54.664Z,90.0313
2023-04-08T03:21:55.254Z,90.1116
2023-04-08T03:22:56.017Z,90.3262
2023-04-08T03:23:56.502Z,90.5225
2023-04-08T03:24:57.224Z,90.6660
2023-04-08T03:25:57.745Z,90.8140
2023-04-08T03:26:58.641Z,90.7635
2023-04-08T03:27:59.383Z,90.6355
2023-04-08T03:29:00.502Z,90.6265
2023-04-08T03:30:00.911Z,90.7381
2023-04-08T03:31:01.034Z,90.9859
2023-04-08T03:32:02.031Z,91.1156
2023-04-08T03:33:02.859Z,91.2575
2023-04-08T03:34:03.673Z,91.5042
2023-04-08T03:35:04.330Z,91.7539
2023-04-08T03:36:05.625Z,91.8395
2023-04-08T03:37:06.221Z,92.1161
2023-04-08T03:38:06.958Z,92.4692
2023-04-08T03:39:07.767Z,92.7046
2023-04-08T03:40:08.366Z,92.8640
2023-04-08T03:41:09.107Z,92.9797
2023-04-08T03:42:09.679Z,93.0685
2023-04-08T03:43:10.458Z,93.2097
2023-04-08T03:44:11.128Z,93.2966
2023-04-08T03:45:11.846Z,93.3118
2023-04-08T03:46:12.678Z,93.0982
2023-04-08T03:47:13.821Z,92.9175
2023-04-08T03:48:14.726Z,92.6000
2023-04-08T03:49:14.886Z,92.2898
2023-04-08T03:50:15.441Z,91.9834
2023-04-08T03:51:16.284Z,91.8306
2023-04-08T03:52:16.997Z,91.7164
2023-04-08T03:53:17.586Z,91.5803
2023-04-08T03:54:18.420Z,91.7666
2023-04-08T03:55:19.012Z,91.9507
2023-04-08T03:56:19.716Z,92.2722
2023-04-08T03:57:20.345Z,92.5637
2023-04-08T03:58:21.111Z,92.7971
2023-04-08T03:59:22.201Z,92.9899
2023-04-08T04:00:22.960Z,93.0797
2023-04-08T04:01:23.818Z,93.1475
2023-04-08T04:02:24.901Z,93.2586
2023-04-08T04:03:25.592Z,93.3746
2023-04-08T04:04:26.768Z,93.4558
2023-04-08T04:05:26.671Z,93.4751
2023-04-08T04:06:27.513Z,93.4950
2023-04-08T04:07:28.110Z,93.5401
2023-04-08T04:08:28.937Z,93.5377
2023-04-08T04:09:29.534Z,93.5100
2023-04-08T04:10:30.297Z,93.5052
2023-04-08T04:11:30.957Z,93.4083
2023-04-08T04:12:31.675Z,93.2993
2023-04-08T04:13:32.349Z,93.2461
2023-04-08T04:14:33.204Z,93.2488
2023-04-08T04:15:34.083Z,93.2560
2023-04-08T04:16:34.820Z,93.3129
2023-04-08T04:17:35.805Z,93.3306
2023-04-08T04:18:36.998Z,93.1941
2023-04-08T04:19:38.098Z,93.0972
2023-04-08T04:20:38.618Z,93.0429
2023-04-08T04:21:39.620Z,93.0132
2023-04-08T04:22:40.376Z,93.0273
2023-04-08T04:23:41.050Z,93.0307
2023-04-08T04:24:41.808Z,92.9993
2023-04-08T04:25:42.604Z,93.0467
2023-04-08T04:26:43.337Z,92.9997
2023-04-08T04:27:44.103Z,92.8964
2023-04-08T04:28:44.671Z,92.8272
2023-04-08T04:29:45.408Z,92.8563
2023-04-08T04:30:46.133Z,92.7117
2023-04-08T04:31:47.273Z,92.6528
2023-04-08T04:32:48.329Z,92.6806
2023-04-08T04:33:49.167Z,92.7083
2023-04-08T04:34:49.979Z,92.7463
2023-04-08T04:35:50.830Z,92.8117
2023-04-08T04:36:51.771Z,92.8620
2023-04-08T04:37:52.586Z,92.8628
2023-04-08T04:38:53.705Z,92.7347
2023-04-08T04:39:54.148Z,92.5591
2023-04-08T04:40:54.804Z,92.4690
2023-04-08T04:41:55.621Z,92.4587
2023-04-08T04:42:56.377Z,92.5011
2023-04-08T04:43:56.970Z,92.3825
2023-04-08T04:44:57.752Z,92.1933
2023-04-08T04:45:58.499Z,92.1235
2023-04-08T04:46:59.601Z,92.1205
2023-04-08T04:48:00.891Z,92.1637
2023-04-08T04:49:00.828Z,92.0670
2023-04-08T04:50:01.737Z,91.8108
2023-04-08T04:51:02.381Z,91.6589
2023-04-08T04:52:03.065Z,91.7492
2023-04-08T04:53:03.925Z,91.8718
2023-04-08T04:54:04.521Z,91.8844
2023-04-08T04:55:05.259Z,91.9901
2023-04-08T04:56:05.809Z,92.1921
2023-04-08T04:57:06.650Z,92.2448
2023-04-08T04:58:07.469Z,92.2143
2023-04-08T04:59:07.526Z,91.9570
2023-04-08T05:00:08.371Z,91.8148
2023-04-08T05:01:09.015Z,91.8284
2023-04-08T05:02:09.192Z,91.9160
2023-04-08T05:03:10.191Z,91.9614
2023-04-08T05:05:10.788Z,91.7959
2023-04-08T05:06:11.725Z,91.8523
2023-04-08T05:07:12.454Z,91.8697
2023-04-08T05:08:13.041Z,91.8524
2023-04-08T05:09:13.847Z,91.7283
2023-04-08T05:10:14.564Z,91.6200
2023-04-08T05:11:15.316Z,91.6189
2023-04-08T05:12:16.118Z,91.5825
2023-04-08T05:13:16.738Z,91.5828
2023-04-08T05:14:17.731Z,91.6118
2023-04-08T05:15:18.428Z,91.5882
2023-04-08T05:16:19.474Z,91.5686
2023-04-08T05:17:20.435Z,91.6212
2023-04-08T05:18:21.470Z,91.6430
2023-04-08T05:19:22.323Z,91.6282
2023-04-08T05:20:23.399Z,91.6421
2023-04-08T05:21:24.197Z,91.6716
2023-04-08T05:22:24.774Z,91.6721
2023-04-08T05:23:25.700Z,91.5302
2023-04-08T05:24:26.226Z,91.3815
2023-04-08T05:25:27.026Z,91.4032
2023-04-08T05:26:27.869Z,91.4273
2023-04-08T05:27:28.559Z,91.4673
2023-04-08T05:28:29.269Z,91.4438
2023-04-08T05:29:30.000Z,91.4738
2023-04-08T05:30:30.831Z,91.4759
2023-04-08T05:31:31.795Z,91.3169
2023-04-08T05:32:33.066Z,91.3041
2023-04-08T05:33:34.393Z,91.3303
2023-04-08T05:34:35.189Z,91.2957
2023-04-08T05:35:36.166Z,91.2622
2023-04-08T05:36:37.071Z,91.2003
2023-04-08T05:37:37.934Z,91.1856
2023-04-08T05:38:38.919Z,91.2070
2023-04-08T05:39:39.556Z,91.2375
2023-04-08T05:40:40.655Z,91.2190
2023-04-08T05:41:41.310Z,91.2009
2023-04-08T05:42:42.149Z,91.2382
2023-04-08T05:43:42.994Z,91.3703
2023-04-08T05:44:43.673Z,91.5053
2023-04-08T05:45:44.587Z,91.3101
2023-04-08T05:46:45.360Z,91.1422
2023-04-08T05:47:46.545Z,91.0451
2023-04-08T05:48:47.692Z,91.0958
2023-04-08T05:49:50.143Z,91.0701
2023-04-08T05:50:49.478Z,91.1046
2023-04-08T05:51:50.253Z,91.0400
2023-04-08T05:52:51.166Z,91.0733
2023-04-08T05:53:51.854Z,90.9248
2023-04-08T05:54:52.734Z,90.5792
2023-04-08T05:55:53.458Z,90.1087
2023-04-08T05:56:54.411Z,90.2875
2023-04-08T05:57:55.322Z,90.1768
2023-04-08T05:58:56.478Z,90.1588
2023-04-08T05:59:57.385Z,90.3382
2023-04-08T06:00:58.111Z,90.3137
2023-04-08T06:01:59.238Z,90.3178
2023-04-08T06:02:59.558Z,90.1609
2023-04-08T06:04:00.481Z,90.0124
2023-04-08T06:05:01.130Z,89.9240
2023-04-08T06:06:01.869Z,89.6683
2023-04-08T06:07:02.740Z,89.6032
2023-04-08T06:08:03.536Z,89.5610
2023-04-08T06:09:03.597Z,89.8754
2023-04-08T06:10:04.338Z,89.8696
2023-04-08T06:11:05.308Z,89.7844
2023-04-08T06:12:06.227Z,89.7216
2023-04-08T06:13:06.850Z,89.4681
2023-04-08T06:14:07.811Z,89.0657
2023-04-08T06:15:08.589Z,89.1050
2023-04-08T06:16:09.569Z,89.3196
2023-04-08T06:17:09.599Z,89.2774
2023-04-08T06:18:10.532Z,89.3716
2023-04-08T06:19:11.377Z,89.4458
2023-04-08T06:20:12.088Z,89.3869
2023-04-08T06:21:13.336Z,89.1119
2023-04-08T06:22:13.466Z,89.0453
2023-04-08T06:23:14.300Z,88.6363
2023-04-08T06:24:15.124Z,88.7013
2023-04-08T06:25:15.845Z,88.7387
2023-04-08T06:26:16.686Z,88.9277
2023-04-08T06:27:17.454Z,88.5442
2023-04-08T06:28:18.293Z,88.3102
2023-04-08T06:29:19.114Z,88.2057
2023-04-08T06:30:20.160Z,88.1137
2023-04-08T06:31:21.104Z,88.1054
2023-04-08T06:32:21.707Z,87.9521
2023-04-08T06:33:22.728Z,87.8731
2023-04-08T06:34:23.434Z,88.0829
2023-04-08T06:35:24.397Z,87.9207
2023-04-08T06:36:25.383Z,87.9013
2023-04-08T06:37:26.490Z,87.6086
2023-04-08T06:38:27.594Z,87.3545
2023-04-08T06:39:28.464Z,87.3386
2023-04-08T06:40:29.280Z,87.4024
2023-04-08T06:41:30.115Z,87.4562
2023-04-08T06:42:31.061Z,87.3991
2023-04-08T06:43:32.234Z,87.3170
2023-04-08T06:44:32.995Z,87.1729
2023-04-08T06:45:33.966Z,87.2112
2023-04-08T06:46:35.152Z,87.0600
2023-04-08T06:47:36.196Z,87.1226
2023-04-08T06:48:37.185Z,87.1197
2023-04-08T06:49:37.919Z,87.0437
2023-04-08T06:50:38.873Z,87.3639
2023-04-08T06:51:39.623Z,87.3492
2023-04-08T06:52:39.926Z,86.8633
2023-04-08T06:53:40.951Z,86.2492
2023-04-08T06:54:41.692Z,86.1542
2023-04-08T06:55:42.562Z,85.3728
2023-04-08T06:56:43.394Z,84.9649
2023-04-08T06:57:44.405Z,85.1118
2023-04-08T06:58:45.482Z,85.1135
2023-04-08T06:59:45.426Z,85.1883
2023-04-08T07:00:46.425Z,85.0199
2023-04-08T07:01:47.746Z,84.8536
2023-04-08T07:02:48.620Z,84.7739
2023-04-08T07:03:49.342Z,84.4674
2023-04-08T07:04:50.391Z,84.6324
2023-04-08T07:05:51.351Z,84.4727
2023-04-08T07:06:52.138Z,84.3217
2023-04-08T07:07:52.990Z,84.3629
2023-04-08T07:08:53.414Z,84.1419
2023-04-08T07:09:54.148Z,83.5110
2023-04-08T07:10:55.313Z,83.5097
2023-04-08T07:11:56.245Z,83.7635
2023-04-08T07:12:57.336Z,83.4710
2023-04-08T07:13:58.102Z,83.2156
2023-04-08T07:14:59.329Z,83.0435
2023-04-08T07:16:00.226Z,83.8378
2023-04-08T07:17:01.474Z,83.3191
2023-04-08T07:18:02.816Z,83.2791
2023-04-08T07:19:03.837Z,83.1198
2023-04-08T07:20:04.829Z,83.1284
2023-04-08T07:21:05.521Z,83.4325
2023-04-08T07:22:06.304Z,83.5131
2023-04-08T07:23:07.265Z,83.6951
2023-04-08T07:24:07.985Z,83.8864
2023-04-08T07:25:08.925Z,83.9434
2023-04-08T07:26:09.876Z,83.6342
2023-04-08T07:27:10.700Z,83.6387
2023-04-08T07:28:11.695Z,83.4010
2023-04-08T07:29:11.690Z,82.9269
2023-04-08T07:30:12.635Z,83.2116
2023-04-08T07:31:13.796Z,83.1034
2023-04-08T07:32:14.773Z,83.0329
2023-04-08T07:33:15.399Z,82.8988
2023-04-08T07:34:16.159Z,82.8657
2023-04-08T07:35:17.143Z,83.2314
2023-04-08T07:36:18.454Z,83.2664
2023-04-08T07:37:19.321Z,83.3223
2023-04-08T07:38:20.282Z,82.9578
2023-04-08T07:39:21.049Z,82.9773
2023-04-08T07:40:21.931Z,83.1309
2023-04-08T07:41:22.949Z,83.2613
2023-04-08T07:42:23.785Z,83.2732
2023-04-08T07:43:24.706Z,83.2033
2023-04-08T07:44:25.560Z,82.6735
2023-04-08T07:45:26.687Z,82.6696
2023-04-08T07:46:26.761Z,82.8470
2023-04-08T07:47:27.765Z,82.8461
2023-04-08T07:48:28.935Z,82.9416
2023-04-08T07:49:29.853Z,82.7729
2023-04-08T07:50:30.938Z,82.8343
2023-04-08T07:51:32.152Z,82.5302
2023-04-08T07:52:33.409Z,82.0954
2023-04-08T07:53:34.407Z,81.9026
2023-04-08T07:54:35.414Z,82.3482
2023-04-08T07:55:36.551Z,82.4461
2023-04-08T07:56:37.434Z,82.6148
2023-04-08T07:57:37.741Z,81.7023
2023-04-08T07:58:37.965Z,81.5944
2023-04-08T07:59:38.009Z,81.8153
2023-04-08T08:00:39.107Z,81.7257
2023-04-08T08:01:40.278Z,81.4693
2023-04-08T08:02:41.432Z,81.3761
2023-04-08T08:03:42.469Z,81.4964
2023-04-08T08:04:42.493Z,81.5116
2023-04-08T08:05:42.653Z,81.1545
2023-04-08T08:06:43.836Z,81.3137
2023-04-08T08:07:44.996Z,81.8869
2023-04-08T08:08:45.924Z,81.3367
2023-04-08T08:09:46.426Z,80.8473
2023-04-08T08:10:47.311Z,80.2694
2023-04-08T08:11:48.345Z,80.1525
2023-04-08T08:12:49.410Z,80.6133
2023-04-08T08:13:50.727Z,80.6686
2023-04-08T08:14:51.258Z,81.2437
2023-04-08T08:15:52.329Z,81.2277
2023-04-08T08:16:53.264Z,80.5314
2023-04-08T08:17:53.703Z,79.7456
2023-04-08T08:18:54.703Z,80.0177
2023-04-08T08:19:55.735Z,80.7695
2023-04-08T08:20:56.794Z,80.6307
2023-04-08T08:21:57.746Z,80.7160
2023-04-08T08:22:59.865Z,80.2181
2023-04-08T08:24:01.104Z,79.6263
2023-04-08T08:25:01.994Z,79.7304
2023-04-08T08:26:03.046Z,79.9529
2023-04-08T08:27:03.917Z,79.2400
2023-04-08T08:28:05.029Z,78.5143
2023-04-08T08:29:06.050Z,79.6207
2023-04-08T08:30:06.921Z,78.3679
2023-04-08T08:31:07.242Z,78.0525
2023-04-08T08:32:07.263Z,78.3016
2023-04-08T08:33:08.499Z,77.9451
2023-04-08T08:34:09.617Z,78.4603
2023-04-08T08:35:10.606Z,78.6798
2023-04-08T08:36:10.646Z,79.0437
2023-04-08T08:37:11.642Z,78.9899
2023-04-08T08:38:12.759Z,78.9934
2023-04-08T08:39:13.713Z,78.8302
2023-04-08T08:40:14.849Z,77.6070
2023-04-08T08:41:15.930Z,77.4881
2023-04-08T08:42:16.817Z,76.7437
2023-04-08T08:43:17.910Z,76.7951
2023-04-08T08:44:18.771Z,78.3139
2023-04-08T08:45:19.733Z,79.0724
2023-04-08T08:46:21.295Z,77.6089
2023-04-08T08:47:22.396Z,77.3554
2023-04-08T08:48:22.911Z,77.5300
2023-04-08T08:49:23.769Z,77.3207
2023-04-08T08:50:25.075Z,76.5889
2023-04-08T08:51:25.894Z,76.7407
2023-04-08T08:52:27.139Z,77.1830
2023-04-08T08:53:28.154Z,76.9117
2023-04-08T08:54:28.728Z,76.9410
2023-04-08T08:55:44.844Z,77.6049
2023-04-08T08:56:30.794Z,77.1177
2023-04-08T08:57:31.922Z,77.0363
2023-04-08T08:59:32.463Z,76.9883
2023-04-08T09:00:34.622Z,75.8928
2023-04-08T09:01:34.917Z,75.7839
2023-04-08T09:02:35.214Z,76.0900
2023-04-08T09:03:35.484Z,75.8148
2023-04-08T09:04:35.839Z,75.4149
2023-04-08T09:05:36.276Z,75.3093
2023-04-08T09:06:37.591Z,75.4800
2023-04-08T09:07:38.534Z,76.2848
2023-04-08T09:08:39.629Z,75.4259
2023-04-08T09:09:40.502Z,74.8747
2023-04-08T09:10:41.501Z,74.4248
2023-04-08T09:11:41.599Z,75.1118
2023-04-08T09:12:42.485Z,74.7489
2023-04-08T09:13:43.641Z,74.5501
2023-04-08T09:14:43.919Z,74.4929
2023-04-08T09:15:44.858Z,75.1741
2023-04-08T09:16:46.741Z,75.2483
2023-04-08T09:17:47.886Z,75.1364
2023-04-08T09:18:47.906Z,73.9414
2023-04-08T09:19:49.189Z,74.1302
2023-04-08T09:20:50.270Z,74.0514
2023-04-08T09:21:51.512Z,73.9973
2023-04-08T09:22:52.755Z,73.4680
2023-04-08T09:23:53.628Z,73.6425
2023-04-08T09:24:53.504Z,73.9096
2023-04-08T09:25:54.612Z,74.4598
2023-04-08T09:26:55.729Z,74.5540
2023-04-08T09:27:55.602Z,74.5535
2023-04-08T09:28:56.576Z,74.1470
2023-04-08T09:29:57.159Z,73.7381
2023-04-08T09:30:58.300Z,74.2060
2023-04-08T09:31:58.412Z,74.4434
2023-04-08T09:32:58.615Z,74.1304
2023-04-08T09:33:59.107Z,73.9288
2023-04-08T09:34:59.340Z,73.8697
2023-04-08T09:35:59.897Z,74.4649
2023-04-08T09:37:01.117Z,74.4579
2023-04-08T09:38:02.246Z,74.4155
2023-04-08T09:39:03.197Z,74.2777
2023-04-08T09:40:04.379Z,73.9217
2023-04-08T09:41:05.269Z,74.3399
2023-04-08T09:42:06.329Z,74.2566
2023-04-08T09:43:07.463Z,74.5435
2023-04-08T09:44:07.566Z,74.5604
2023-04-08T09:45:08.779Z,74.6320
2023-04-08T09:46:10.107Z,74.7215
2023-04-08T09:47:11.165Z,74.6566
2023-04-08T09:48:11.183Z,74.3727
2023-04-08T09:49:12.066Z,74.3870
2023-04-08T09:50:13.217Z,73.9354
2023-04-08T09:51:14.247Z,74.3152
2023-04-08T09:52:15.337Z,73.9187
2023-04-08T09:53:16.655Z,73.7857
2023-04-08T09:54:17.547Z,73.8023
2023-04-08T09:55:18.685Z,73.8300
2023-04-08T09:56:19.722Z,73.9789
2023-04-08T09:57:20.910Z,74.4720
2023-04-08T09:58:22.075Z,74.3106
2023-04-08T09:59:23.109Z,73.9601
2023-04-08T10:00:24.387Z,74.1796
2023-04-08T10:01:25.680Z,74.0769
2023-04-08T10:02:26.323Z,74.2331
2023-04-08T10:03:27.634Z,74.2850
2023-04-08T10:04:28.366Z,73.7367
2023-04-08T10:05:29.325Z,73.5595
2023-04-08T10:06:30.731Z,74.0771
2023-04-08T10:07:31.674Z,73.9712
2023-04-08T10:08:32.891Z,73.5823
2023-04-08T10:09:33.921Z,73.3224
2023-04-08T10:10:35.103Z,72.8640
2023-04-08T10:11:36.310Z,72.6783
2023-04-08T10:12:37.300Z,72.7816
2023-04-08T10:13:38.585Z,72.7803
2023-04-08T10:14:39.896Z,72.5287
2023-04-08T10:15:40.468Z,72.5525
2023-04-08T10:16:41.560Z,71.4910
2023-04-08T10:17:42.860Z,69.8874
2023-04-08T10:18:43.044Z,69.4261
2023-04-08T10:19:44.048Z,68.0451
2023-04-08T10:20:45.261Z,66.5725
2023-04-08T10:21:46.240Z,66.3796
2023-04-08T10:22:47.066Z,68.6304
2023-04-08T10:23:48.382Z,68.6848
2023-04-08T10:24:49.483Z,68.6281
2023-04-08T10:25:50.794Z,66.4946
2023-04-08T10:26:51.893Z,66.3460
2023-04-08T10:27:53.121Z,65.1789
2023-04-08T10:28:53.916Z,66.1505
2023-04-08T10:29:55.059Z,65.2126
2023-04-08T10:30:55.139Z,66.1559
2023-04-08T10:31:56.418Z,64.9936
2023-04-08T10:32:57.002Z,63.3814
2023-04-08T10:33:58.153Z,63.2389
2023-04-08T10:34:59.375Z,63.4325
2023-04-08T10:36:00.566Z,61.8632
2023-04-08T10:37:01.842Z,62.0297
2023-04-08T10:38:03.029Z,61.6284
2023-04-08T10:39:04.116Z,61.5598
2023-04-08T10:40:05.439Z,61.8739
2023-04-08T10:41:06.516Z,62.3798
2023-04-08T10:42:07.796Z,60.7220
2023-04-08T10:44:08.116Z,61.1338
2023-04-08T10:45:41.405Z,61.9901
2023-04-08T10:46:41.603Z,62.4542
2023-04-08T10:47:41.817Z,62.7959
2023-04-08T10:48:43.170Z,63.0695
2023-04-08T10:49:44.260Z,63.4655
2023-04-08T10:50:45.519Z,63.5152
2023-04-08T10:51:46.714Z,64.0566
2023-04-08T10:52:46.742Z,64.6226
2023-04-08T10:53:48.084Z,64.9018
2023-04-08T10:54:49.181Z,65.2495
2023-04-08T10:55:50.416Z,65.1915
2023-04-08T10:56:50.616Z,65.0304
2023-04-08T10:57:51.932Z,65.4436
2023-04-08T10:58:52.935Z,65.1826
2023-04-08T10:59:54.230Z,65.2818
2023-04-08T11:00:55.422Z,65.3373
2023-04-08T11:01:55.675Z,64.9669
2023-04-08T11:02:56.160Z,64.3595
2023-04-08T11:03:57.491Z,63.6539
2023-04-08T11:04:58.094Z,63.5466
2023-04-08T11:05:58.279Z,63.5921
2023-04-08T11:06:59.363Z,63.2550
2023-04-08T11:08:00.648Z,62.6391
2023-04-08T11:09:01.076Z,62.1616
2023-04-08T11:10:01.455Z,62.5276
2023-04-08T11:11:03.210Z,62.7288
2023-04-08T11:12:03.223Z,61.7872
2023-04-08T11:13:03.258Z,61.4434
2023-04-08T11:14:04.335Z,61.4699
2023-04-08T11:15:05.568Z,61.4984
2023-04-08T11:16:17.277Z,61.2034
2023-04-08T11:17:06.877Z,61.0409
2023-04-08T11:18:07.928Z,60.3048
2023-04-08T11:19:08.158Z,59.1697
2023-04-08T11:20:08.132Z,58.9456
2023-04-08T11:21:09.327Z,59.2323
2023-04-08T11:22:09.325Z,58.8017
2023-04-08T11:23:10.318Z,59.1467
2023-04-08T11:24:11.651Z,59.3254
2023-04-08T11:25:12.654Z,59.8229
2023-04-08T11:26:13.797Z,59.2470
2023-04-08T11:27:15.026Z,60.0508
2023-04-08T11:28:16.077Z,59.8490
2023-04-08T11:29:17.354Z,59.5609
2023-04-08T11:30:18.351Z,58.7320
2023-04-08T11:31:20.652Z,56.3021
2023-04-08T11:32:19.809Z,55.6480
2023-04-08T11:33:19.804Z,55.1736
2023-04-08T11:34:21.002Z,54.9993
2023-04-08T11:35:21.933Z,54.7827
2023-04-08T11:36:22.125Z,54.7466
2023-04-08T11:37:23.086Z,54.8860
2023-04-08T11:38:24.372Z,55.5674
2023-04-08T11:39:25.405Z,55.2392
2023-04-08T11:40:26.348Z,54.5023
2023-04-08T11:41:27.484Z,53.8822
2023-04-08T11:42:28.392Z,53.7858
2023-04-08T11:43:29.536Z,53.9486
2023-04-08T11:44:30.517Z,54.0676
2023-04-08T11:45:31.642Z,54.4147
2023-04-08T11:46:31.867Z,54.6912
2023-04-08T11:47:33.109Z,53.1337
2023-04-08T11:48:33.157Z,52.8787
2023-04-08T11:49:34.179Z,52.3634
2023-04-08T11:50:35.311Z,52.2902
2023-04-08T11:51:36.304Z,51.3911
2023-04-08T11:52:37.518Z,51.5967
2023-04-08T11:53:38.797Z,51.5550
2023-04-08T11:54:39.481Z,52.4787
2023-04-08T11:55:40.670Z,53.1275
2023-04-08T11:56:41.642Z,52.5118
2023-04-08T11:57:42.831Z,52.9639
2023-04-08T11:58:44.108Z,51.9581
2023-04-08T11:59:45.126Z,52.4783
2023-04-08T12:00:46.318Z,52.4806
2023-04-08T12:01:47.526Z,51.3219
2023-04-08T12:02:48.214Z,51.3696
2023-04-08T12:03:49.529Z,50.8805
2023-04-08T12:04:49.589Z,50.9402
2023-04-08T12:05:49.603Z,51.7687
2023-04-08T12:06:50.565Z,51.3112
2023-04-08T12:07:51.731Z,50.9655
2023-04-08T12:08:52.913Z,51.9333
2023-04-08T12:09:54.154Z,53.2167
2023-04-08T12:10:55.429Z,53.9891
2023-04-08T12:11:56.236Z,54.7267
2023-04-08T12:12:57.443Z,54.7349
2023-04-08T12:13:58.647Z,55.2192
2023-04-08T12:14:59.347Z,56.3347
2023-04-08T12:15:59.428Z,56.4437
2023-04-08T12:16:59.444Z,56.7492
2023-04-08T12:17:59.651Z,56.9882
2023-04-08T12:19:00.910Z,57.1942